KCVN/CVN METAR and TAF weather

Enter ICAO airport designator
Station Type Date Time Source
KCVN METAR 2019/02/23 02:56 UTC NOAA

KCVN 230256Z AUTO 12016G20KT 10SM CLR 04/02 A2971 RMK AO2 SLP068 T00440022 55005


Station Type Date Time Source
KCVN Decoded METAR 2019/02/23 02:56 UTC NOAA

Clovis, Clovis Municipal Airport, NM, United States (KCVN) 34-26N 103-05W
Feb 22, 2019 - 09:56 PM EST / 2019.02.23 0256 UTC
Wind: from the ESE (120 degrees) at 18 MPH (16 KT) gusting to 23 MPH (20 KT):0
Visibility: 10 mile(s):0
Sky conditions: clear
Temperature: 39.9 F (4.4 C)
Dew Point: 36.0 F (2.2 C)
Relative Humidity: 85%
Pressure (altimeter): 29.71 in. Hg (1006 hPa)
Pressure tendency: 0.01 inches (0.5 hPa) lower than three hours ago
ob: KCVN 230256Z AUTO 12016G20KT 10SM CLR 04/02 A2971 RMK AO2 SLP068 T00440022 55005
cycle: 3

Station Type Date Time Source
KCVN TAF UTC NOAA

Error!


Example: see airport list